CheckWX is a tool to help pilots better visualize weather data.  It is not intended as a substitute for an official pre-flight weather briefing.

01:54:14 UTC

KSSI TAF
McKinnon St Simons Island Airport
Brunswick, Georgia, USA
KSSI 182350Z 1900/1924 VRB05KT P6SM OVC200 FM191000 02010KT P6SM OVC200 FM191300 04013G22KT P6SM FEW050 OVC150 FM191800 04016G26KT P6SM SCT050 OVC120

Mar-19@
00:00 UTC

Mar-19 @ 00:00 UTC

Mar-19@
10:00 UTC

Mar-19 @ 10:00 UTC

KSSI 182350Z 1900/1924 VRB05KT P6SM OVC200
Wind
  • Variable at 5 KTS
Cloud Levels
  • Overcast at 20,000' AGL

Mar-19@
10:00 UTC

Mar-19 @ 10:00 UTC

Mar-19@
13:00 UTC

Mar-19 @ 13:00 UTC

FM191000 02010KT P6SM OVC200

From

From Standard forecast or significant change

Wind
  • 020° at 10 KTS
Cloud Levels
  • Overcast at 20,000' AGL

Mar-19@
13:00 UTC

Mar-19 @ 13:00 UTC

Mar-19@
18:00 UTC

Mar-19 @ 18:00 UTC

FM191300 04013G22KT P6SM FEW050 OVC150

From

From Standard forecast or significant change

Wind
  • 040° at 13 KTS
  • {Gusting to 22 KTS
Cloud Levels
  • Few at 5,000' AGL
  • Overcast at 15,000' AGL

Mar-19@
18:00 UTC

Mar-19 @ 18:00 UTC

Mar-20@
00:00 UTC

Mar-20 @ 00:00 UTC

FM191800 04016G26KT P6SM SCT050 OVC120

From

From Standard forecast or significant change

Wind
  • 040° at 16 KTS
  • {Gusting to 26 KTS
Cloud Levels
  • Scattered at 5,000' AGL
  • Overcast at 12,000' AGL